Time;durP1;ratioP1;P1;durP2;ratioP2;P2;SDS_P1;SDS_P2;PMS_P1;PMS_P2;Temp;Humidity;BMP_temperature;BMP_pressure;BME280_temperature;BME280_humidity;BME280_pressure;Samples;Min_cycle;Max_cycle;Signal;HPM_P1;HPM_P2
2022/02/03 00:00:44;;;;;;;27.70;18.73;;;;;;;6.15;85.64;100494.50;4997084;28;20046;-64
2022/02/03 00:03:20;;;;;;;29.13;19.13;;;;;;;6.15;85.85;100496.22;4979282;28;20057;-63
2022/02/03 00:05:54;;;;;;;23.20;17.65;;;;;;;6.15;85.48;100497.09;4997159;28;20034;-64
2022/02/03 00:09:00;;;;;;;28.10;20.85;;;;;;;6.15;85.13;100499.66;4963436;28;20516;-63
2022/02/03 00:22:01;;;;;;;24.00;17.02;;;;;;;6.14;85.44;100495.31;4996803;28;20043;-64
2022/02/03 00:22:02;;;;;;;23.77;17.05;;;;;;;6.15;85.31;100489.38;4979885;28;20510;-64
2022/02/03 00:25:52;;;;;;;27.45;17.60;;;;;;;6.15;85.80;100491.06;4996566;28;20046;-65
2022/02/03 00:28:29;;;;;;;23.45;18.50;;;;;;;6.14;85.47;100497.91;4996803;28;20496;-64
2022/02/03 00:31:11;;;;;;;24.30;18.13;;;;;;;6.15;85.38;100496.22;4996514;28;20049;-66
2022/02/03 00:34:00;;;;;;;26.25;17.15;;;;;;;6.14;85.75;100491.88;4979106;28;20135;-64
2022/02/03 00:37:12;;;;;;;23.23;16.85;;;;;;;6.14;86.01;100494.47;4979234;28;20121;-63
2022/02/03 00:50:33;;;;;;;30.05;17.35;;;;;;;6.12;85.80;100475.50;4996189;28;19914;-64
2022/02/03 00:53:01;;;;;;;24.33;16.58;;;;;;;6.12;85.30;100472.94;4978509;28;20034;-64
2022/02/03 00:55:36;;;;;;;21.58;15.18;;;;;;;6.12;85.82;100460.06;4962481;28;20470;-64
2022/02/03 00:58:04;;;;;;;25.10;16.65;;;;;;;6.13;86.07;100461.81;4962680;28;20026;-64
2022/02/03 01:00:34;;;;;;;23.08;16.23;;;;;;;6.13;86.04;100454.97;4962417;28;20053;-64
2022/02/03 01:03:11;;;;;;;27.48;17.40;;;;;;;6.12;85.73;100450.63;4962304;28;20054;-65
2022/02/03 01:05:46;;;;;;;22.45;15.85;;;;;;;6.13;85.53;100462.69;4978362;28;20046;-63
2022/02/03 01:08:21;;;;;;;21.40;15.10;;;;;;;6.14;85.83;100461.00;4978725;28;20034;-64
2022/02/03 01:11:07;;;;;;;20.02;15.02;;;;;;;6.13;85.80;100462.69;4962292;28;20046;-64
2022/02/03 01:44:02;;;;;;;13.18;9.38;;;;;;;6.13;85.73;100465.25;4995338;28;20539;-63
2022/02/03 01:46:50;;;;;;;14.02;10.38;;;;;;;6.12;85.85;100460.91;4977826;28;20113;-63
2022/02/03 01:52:18;;;;;;;11.93;10.10;;;;;;;6.12;85.43;100455.78;4954827;28;20042;-64
2022/02/03 01:54:55;;;;;;;10.65;9.05;;;;;;;6.11;85.64;100450.56;4961670;28;20037;-64
2022/02/03 01:57:42;;;;;;;12.63;9.68;;;;;;;6.11;85.55;100445.44;4977356;28;20042;-64
2022/02/03 02:00:13;;;;;;;11.98;9.07;;;;;;;6.10;85.45;100447.09;4995114;28;20042;-64
2022/02/03 02:02:53;;;;;;;12.27;8.02;;;;;;;6.11;85.79;100443.72;4957749;28;20086;-64
2022/02/03 02:05:35;;;;;;;12.55;8.35;;;;;;;6.12;85.98;100439.47;4975113;28;20046;-63
2022/02/03 02:08:39;;;;;;;17.45;9.07;;;;;;;6.12;85.46;100439.47;4957990;28;20393;-63
2022/02/03 02:11:26;;;;;;;12.43;8.75;;;;;;;6.11;85.76;100440.28;4960340;28;20486;-64
2022/02/03 02:40:08;;;;;;;12.32;8.07;;;;;;;6.08;85.74;100416.19;4973599;28;20027;-64
2022/02/03 02:42:49;;;;;;;9.52;8.43;;;;;;;6.08;85.68;100421.31;4974057;28;20093;-63
2022/02/03 02:45:20;;;;;;;16.15;8.32;;;;;;;6.08;85.33;100416.19;4973772;28;20082;-64
2022/02/03 02:48:06;;;;;;;18.42;8.30;;;;;;;6.08;85.98;100412.72;4957469;28;20082;-64
2022/02/03 02:51:06;;;;;;;12.93;8.07;;;;;;;6.09;85.83;100417.94;4974602;28;20478;-63
2022/02/03 03:30:28;;;;;;;12.75;9.10;;;;;;;6.08;85.82;100326.09;4997673;28;20038;-63
2022/02/03 03:35:52;;;;;;;14.07;9.48;;;;;;;6.12;85.48;100323.66;4980209;28;20040;-64
2022/02/03 03:38:28;;;;;;;17.60;9.65;;;;;;;6.13;85.55;100320.28;4979870;28;20425;-64
2022/02/03 03:40:59;;;;;;;14.95;9.25;;;;;;;6.12;85.56;100318.50;4980136;28;20042;-64
2022/02/03 03:43:35;;;;;;;18.77;11.05;;;;;;;6.13;86.10;100331.44;4997614;28;20084;-64
2022/02/03 03:46:09;;;;;;;13.05;9.77;;;;;;;6.12;85.48;100324.53;4964207;28;20441;-64
2022/02/03 03:49:21;;;;;;;15.52;11.27;;;;;;;6.12;85.87;100315.94;4997303;28;20034;-64
2022/02/03 03:51:57;;;;;;;15.30;10.20;;;;;;;6.13;85.78;100312.56;4981402;28;20054;-63
2022/02/03 03:54:40;;;;;;;11.55;9.20;;;;;;;6.13;86.12;100313.41;4979921;28;20042;-64
2022/02/03 03:57:19;;;;;;;12.05;9.32;;;;;;;6.12;85.90;100311.66;4997386;28;20038;-64
2022/02/03 04:46:10;;;;;;;18.42;11.80;;;;;;;6.13;85.71;100254.22;4996242;28;20089;-64
2022/02/03 04:55:21;;;;;;;17.77;12.82;;;;;;;6.13;85.92;100250.78;4996447;28;20034;-64
2022/02/03 05:04:32;;;;;;;22.33;11.10;;;;;;;6.12;85.86;100231.88;4955394;29;20443;-64
2022/02/03 05:07:53;;;;;;;14.35;10.43;;;;;;;6.12;85.93;100241.31;4959625;28;20109;-64
2022/02/03 05:11:00;;;;;;;15.50;11.38;;;;;;;6.12;86.08;100246.47;4962748;28;20046;-64
2022/02/03 05:44:48;;;;;;;13.77;9.52;;;;;;;6.08;85.67;100212.00;4995143;28;20034;-64
2022/02/03 06:06:49;;;;;;;15.98;11.23;;;;;;;6.07;85.51;100174.25;4954961;29;20043;-64
2022/02/03 06:09:33;;;;;;;15.73;10.45;;;;;;;6.05;85.65;100163.88;4955604;28;20079;-64
2022/02/03 06:22:56;;;;;;;16.58;13.38;;;;;;;6.06;85.61;100169.91;4956021;28;20513;-64
2022/02/03 06:28:10;;;;;;;14.40;12.82;;;;;;;6.06;85.27;100142.47;4934893;29;20081;-64
2022/02/03 06:30:43;;;;;;;15.45;13.60;;;;;;;6.06;85.50;100132.19;4938346;29;20427;-64
2022/02/03 06:33:15;;;;;;;16.90;13.70;;;;;;;6.07;85.79;100135.66;4955807;29;20077;-64
2022/02/03 06:35:43;;;;;;;18.10;14.63;;;;;;;6.05;85.43;100132.13;4955640;28;20050;-64
2022/02/03 06:38:09;;;;;;;17.27;14.65;;;;;;;6.08;85.40;100143.41;4939162;28;20042;-64
2022/02/03 06:40:34;;;;;;;17.63;15.13;;;;;;;6.07;85.65;100131.34;4955778;28;20035;-64
2022/02/03 06:43:00;;;;;;;21.67;17.33;;;;;;;6.07;85.53;100115.91;4954282;28;20124;-63
2022/02/03 06:45:43;;;;;;;18.10;16.15;;;;;;;6.07;85.41;100115.06;4955424;28;20550;-63
2022/02/03 06:48:16;;;;;;;20.73;15.60;;;;;;;6.06;85.36;100103.88;4954314;28;20081;-63
2022/02/03 06:50:50;;;;;;;19.27;16.85;;;;;;;6.06;85.04;100103.88;4937889;29;20114;-63
2022/02/03 06:53:20;;;;;;;20.55;16.70;;;;;;;6.07;85.46;100123.63;4954380;29;20035;-63
2022/02/03 06:56:03;;;;;;;23.88;17.25;;;;;;;6.07;85.78;100126.22;4955581;28;20102;-63
2022/02/03 06:58:39;;;;;;;21.52;16.55;;;;;;;6.04;85.23;100115.81;4938130;29;20517;-64
2022/02/03 07:01:11;;;;;;;19.42;16.15;;;;;;;6.06;85.54;100105.59;4955240;28;20063;-64
2022/02/03 07:03:40;;;;;;;21.17;15.55;;;;;;;6.06;85.48;100123.59;4954542;29;20090;-63
2022/02/03 07:06:13;;;;;;;19.13;13.75;;;;;;;6.06;84.86;100134.75;4955133;29;20039;-64
2022/02/03 07:08:43;;;;;;;21.55;15.10;;;;;;;6.06;85.26;100142.47;4937971;29;20047;-63
2022/02/03 07:11:17;;;;;;;16.58;13.77;;;;;;;6.07;85.06;100146.78;4954143;29;20031;-64
2022/02/03 07:13:48;;;;;;;18.42;15.95;;;;;;;6.07;85.15;100128.78;4955498;28;20098;-64
2022/02/03 07:16:16;;;;;;;19.38;15.30;;;;;;;6.06;85.39;100126.16;4937755;29;20122;-64
2022/02/03 07:18:47;;;;;;;19.35;15.65;;;;;;;6.05;85.43;100116.69;4954299;29;20043;-64
2022/02/03 07:21:18;;;;;;;16.80;14.75;;;;;;;6.05;85.12;100122.69;4938229;29;20035;-64
2022/02/03 07:23:47;;;;;;;20.90;15.73;;;;;;;6.06;85.69;100129.59;4938053;29;20122;-64
2022/02/03 07:26:15;;;;;;;19.70;16.23;;;;;;;6.04;84.98;100131.25;4955232;29;20511;-64
2022/02/03 07:28:46;;;;;;;17.35;14.88;;;;;;;6.06;85.25;100134.75;4954991;29;20055;-64
2022/02/03 07:31:14;;;;;;;17.35;14.18;;;;;;;6.05;85.12;100142.44;4937762;29;20558;-63
2022/02/03 07:33:49;;;;;;;16.70;14.52;;;;;;;6.05;85.09;100132.13;4938314;29;20562;-63
2022/02/03 07:36:17;;;;;;;20.58;16.45;;;;;;;6.04;85.24;100120.94;4937877;29;20039;-64
2022/02/03 07:38:48;;;;;;;18.42;12.52;;;;;;;6.04;85.34;100126.09;4938263;29;20042;-65
2022/02/03 07:41:16;;;;;;;17.05;13.77;;;;;;;6.03;85.60;100105.47;4954259;29;20043;-64
2022/02/03 07:43:44;;;;;;;17.85;14.15;;;;;;;6.04;85.41;100102.06;4954915;29;20479;-64
2022/02/03 07:46:12;;;;;;;14.82;12.20;;;;;;;6.02;84.97;100085.72;4953873;29;20035;-64
2022/02/03 07:48:46;;;;;;;15.65;13.65;;;;;;;6.02;84.98;100084.00;4953782;28;20046;-64
2022/02/03 07:51:24;;;;;;;14.30;11.82;;;;;;;6.01;84.98;100081.38;4953656;28;20043;-64
2022/02/03 07:53:53;;;;;;;13.85;11.45;;;;;;;6.01;85.16;100087.38;4937436;29;20039;-64
2022/02/03 07:56:21;;;;;;;13.30;11.23;;;;;;;5.98;84.98;100089.84;4937526;29;20106;-64
2022/02/03 07:58:50;;;;;;;16.35;11.25;;;;;;;6.02;84.98;100090.84;4954708;29;20491;-65
2022/02/03 08:01:15;;;;;;;13.60;10.13;;;;;;;6.01;84.64;100084.81;4956499;28;20047;-66
2022/02/03 08:03:46;;;;;;;12.13;10.25;;;;;;;6.02;84.66;100085.72;4979724;28;20034;-65
2022/02/03 08:06:26;;;;;;;10.85;9.73;;;;;;;6.01;85.10;100089.09;4963585;28;20026;-65
2022/02/03 08:09:05;;;;;;;11.77;10.30;;;;;;;6.00;85.11;100080.47;4996718;28;20038;-64
2022/02/03 08:11:42;;;;;;;10.88;9.48;;;;;;;5.99;85.02;100080.41;4963887;28;20046;-64
2022/02/03 08:14:15;;;;;;;11.40;9.43;;;;;;;6.00;84.73;100071.91;4996947;28;20038;-64
2022/02/03 08:16:50;;;;;;;13.45;8.93;;;;;;;5.99;84.89;100083.88;4979581;28;20046;-64
2022/02/03 08:19:31;;;;;;;10.30;9.18;;;;;;;6.00;84.83;100092.50;4996689;28;20065;-64
2022/02/03 08:22:13;;;;;;;11.02;7.38;;;;;;;6.00;84.57;100082.19;4979552;28;20042;-63
2022/02/03 08:32:30;;;;;;;11.32;7.80;;;;;;;5.95;85.15;100085.44;4996755;28;20116;-64
2022/02/03 08:35:13;;;;;;;7.93;6.35;;;;;;;5.96;84.96;100086.34;4962819;28;20030;-64
2022/02/03 08:40:21;;;;;;;12.45;7.38;;;;;;;5.94;84.85;100090.53;4996416;28;20050;-64
2022/02/03 08:42:51;;;;;;;8.55;6.72;;;;;;;5.95;85.05;100079.44;4963179;28;20046;-63
2022/02/03 08:45:26;;;;;;;9.15;6.70;;;;;;;5.93;84.63;100078.50;4963167;28;20073;-64
2022/02/03 08:48:00;;;;;;;8.23;7.03;;;;;;;5.92;84.66;100071.59;4963024;28;20501;-64
2022/02/03 08:50:35;;;;;;;8.18;6.30;;;;;;;5.91;84.18;100073.31;4996462;28;20039;-64
2022/02/03 08:53:14;;;;;;;9.15;6.85;;;;;;;5.91;84.49;100068.16;4996002;28;20447;-63
2022/02/03 09:37:20;;;;;;;8.20;6.90;;;;;;;5.87;84.57;100016.53;4995200;28;20051;-63
2022/02/03 09:58:38;;;;;;;6.43;5.82;;;;;;;5.88;83.95;100008.91;4995299;28;20067;-65
2022/02/03 10:01:09;;;;;;;6.78;5.82;;;;;;;5.87;84.13;99999.41;4978079;28;20038;-64
2022/02/03 10:03:51;;;;;;;6.80;5.32;;;;;;;5.88;84.67;100011.47;4994955;28;20486;-64
2022/02/03 10:06:25;;;;;;;8.52;5.80;;;;;;;5.87;84.48;100003.69;4994811;28;20043;-64
2022/02/03 10:08:55;;;;;;;8.00;6.57;;;;;;;5.86;84.17;100001.91;4994901;28;20038;-64
2022/02/03 10:11:23;;;;;;;7.95;5.97;;;;;;;5.87;84.21;100008.81;4961138;28;20039;-63
2022/02/03 10:13:54;;;;;;;9.50;6.20;;;;;;;5.87;83.95;100006.25;4977308;28;20125;-63
2022/02/03 10:16:29;;;;;;;7.07;5.97;;;;;;;5.87;84.00;100011.41;4961133;28;20042;-63
2022/02/03 10:19:11;;;;;;;7.38;5.80;;;;;;;5.87;84.50;100004.56;4977561;28;20125;-63
2022/02/03 10:21:37;;;;;;;6.70;5.47;;;;;;;5.86;83.83;100013.09;4961003;28;20125;-64
2022/02/03 10:24:21;;;;;;;7.43;6.03;;;;;;;5.87;84.28;100017.44;4976831;28;20062;-64
2022/02/03 10:26:52;;;;;;;;;;;;;;;5.85;84.01;100008.78;4961264;28;20049;-64
2022/02/03 10:29:38;;;;;;;6.93;5.68;;;;;;;5.85;84.22;100000.16;4977586;28;19914;-64
2022/02/03 10:32:13;;;;;;;6.97;6.00;;;;;;;5.84;83.88;100007.03;4960808;28;20038;-64
2022/02/03 10:34:50;;;;;;;7.95;6.65;;;;;;;5.84;83.92;100007.03;4961480;28;20113;-64
2022/02/03 10:37:38;;;;;;;8.18;6.60;;;;;;;5.85;83.95;100002.75;4960866;28;20493;-63
2022/02/03 10:43:33;;;;;;;14.00;7.05;;;;;;;5.84;84.08;99999.31;4976601;28;20038;-64
2022/02/03 10:46:36;;;;;;;6.38;5.72;;;;;;;5.84;83.58;99995.88;4976874;28;20042;-64
2022/02/03 10:54:52;;;;;;;9.95;6.68;;;;;;;5.84;83.78;99989.03;4994103;28;20030;-64
2022/02/03 11:05:12;;;;;;;7.60;5.97;;;;;;;5.84;83.85;99973.59;4976791;28;20034;-64
2022/02/03 11:10:33;;;;;;;7.88;5.97;;;;;;;5.84;83.70;99983.88;4994222;28;20478;-64
2022/02/03 11:13:06;;;;;;;8.40;6.43;;;;;;;5.82;83.75;99976.94;4993993;28;20065;-64
2022/02/03 11:15:37;;;;;;;9.32;6.63;;;;;;;5.82;83.81;99979.50;4993636;28;20308;-65
2022/02/03 11:18:14;;;;;;;12.35;7.90;;;;;;;5.82;84.22;99992.38;4976633;28;20034;-64
2022/02/03 11:20:44;;;;;;;8.75;6.88;;;;;;;5.82;83.70;99985.53;4960830;28;20043;-63
2022/02/03 12:19:41;;;;;;;8.20;7.20;;;;;;;5.78;83.94;99911.66;4979995;28;20108;-63
2022/02/03 12:22:58;;;;;;;10.57;7.93;;;;;;;5.77;83.77;99922.75;4963482;28;20050;-64
2022/02/03 12:25:37;;;;;;;10.40;7.28;;;;;;;5.77;83.62;99908.22;4996402;28;20089;-64
2022/02/03 12:28:23;;;;;;;10.68;6.93;;;;;;;5.76;83.19;99901.31;4979159;28;20041;-64
2022/02/03 12:31:27;;;;;;;9.70;7.15;;;;;;;5.77;83.26;99897.03;4979063;28;20589;-64
2022/02/03 12:43:31;;;;;;;9.60;7.78;;;;;;;5.76;83.55;99888.47;5152599;27;20542;-63
2022/02/03 12:46:03;;;;;;;12.93;6.95;;;;;;;5.75;83.04;99889.28;5134106;27;20035;-64
2022/02/03 12:48:39;;;;;;;9.57;7.93;;;;;;;5.77;83.01;99884.16;5134361;27;20039;-64
2022/02/03 12:51:07;;;;;;;11.43;8.27;;;;;;;5.77;83.29;99881.59;5152490;27;20031;-64
2022/02/03 12:53:40;;;;;;;11.27;8.45;;;;;;;5.77;83.09;99872.22;5133796;27;20561;-63
2022/02/03 12:56:11;;;;;;;14.82;9.88;;;;;;;5.78;83.62;99878.22;5152384;27;20401;-64
2022/02/03 12:58:44;;;;;;;11.35;8.85;;;;;;;5.78;83.47;99865.34;5133168;27;20034;-65
2022/02/03 13:01:16;;;;;;;14.43;8.55;;;;;;;5.78;83.49;99860.22;5134543;27;20046;-64
2022/02/03 13:03:52;;;;;;;9.70;7.80;;;;;;;5.78;83.56;99853.38;5134049;27;20145;-64
2022/02/03 13:06:27;;;;;;;11.27;8.57;;;;;;;5.78;83.25;99844.78;5152251;27;20074;-64
2022/02/03 13:08:59;;;;;;;15.55;8.48;;;;;;;5.76;82.91;99852.44;5133657;27;20039;-64
2022/02/03 13:17:11;;;;;;;18.35;9.02;;;;;;;5.77;83.32;99854.19;5151987;27;20382;-63
2022/02/03 13:22:13;;;;;;;17.02;8.50;;;;;;;5.77;83.48;99849.06;5151814;27;20381;-64
2022/02/03 13:25:13;;;;;;;9.75;7.95;;;;;;;5.75;82.85;99840.41;5152337;27;20039;-64
2022/02/03 13:30:52;;;;;;;13.68;9.48;;;;;;;5.74;83.58;99822.38;5151859;27;20482;-63
2022/02/03 13:33:26;;;;;;;14.45;9.38;;;;;;;5.74;83.57;99830.94;5151615;27;20398;-63
2022/02/03 13:36:04;;;;;;;13.48;9.15;;;;;;;5.75;82.90;99827.56;5116018;27;20107;-66
2022/02/03 13:38:54;;;;;;;13.00;10.18;;;;;;;5.75;83.33;99826.69;5108664;28;20131;-64
2022/02/03 13:41:25;;;;;;;12.07;8.52;;;;;;;5.76;83.04;99831.03;5108611;28;20036;-64
2022/02/03 13:44:03;;;;;;;11.68;8.98;;;;;;;5.74;83.15;99830.94;5110307;28;20067;-63
2022/02/03 13:46:37;;;;;;;12.55;8.95;;;;;;;5.75;83.21;99824.13;5091973;28;20089;-64
2022/02/03 13:49:05;;;;;;;14.38;10.20;;;;;;;5.75;83.33;99825.00;5109274;28;20042;-64
2022/02/03 13:51:39;;;;;;;16.83;10.02;;;;;;;5.76;83.13;99823.31;5097020;28;20036;-63
2022/02/03 14:20:13;;;;;;;16.02;9.13;;;;;;;5.78;83.08;99786.50;5095919;28;20043;-63
2022/02/03 14:28:13;;;;;;;14.60;9.95;;;;;;;5.78;83.23;99768.50;5095750;28;20387;-65
2022/02/03 14:30:49;;;;;;;14.73;10.25;;;;;;;5.79;83.23;99765.13;5094732;28;20036;-64
2022/02/03 14:33:30;;;;;;;13.95;8.93;;;;;;;5.78;82.67;99760.78;5095154;28;20127;-64
2022/02/03 14:36:07;;;;;;;13.43;9.65;;;;;;;5.78;83.03;99763.38;5094423;28;20039;-63
2022/02/03 14:38:44;;;;;;;13.20;8.57;;;;;;;5.79;82.88;99766.78;5077250;28;20044;-63
2022/02/03 14:41:25;;;;;;;15.80;10.57;;;;;;;5.78;83.21;99765.03;5077714;28;20110;-64
2022/02/03 14:43:52;;;;;;;15.18;9.05;;;;;;;5.79;82.81;99766.78;5094898;28;20041;-63
2022/02/03 14:46:26;;;;;;;13.70;8.43;;;;;;;5.78;82.86;99760.78;5077367;28;20043;-64
2022/02/03 14:48:56;;;;;;;11.43;9.23;;;;;;;5.79;82.62;99759.09;5094340;28;20055;-64
2022/02/03 14:51:44;;;;;;;14.02;10.07;;;;;;;5.79;82.65;99765.13;5095231;28;20043;-64
2022/02/03 14:58:01;;;;;;;15.93;10.73;;;;;;;5.79;82.85;99759.09;5095285;28;20487;-64
2022/02/03 14:59:39;;;;;;;13.77;9.95;;;;;;;5.79;83.10;99749.69;5095094;28;20028;-64
2022/02/03 15:02:08;;;;;;;14.77;8.98;;;;;;;5.79;82.99;99759.09;5094147;28;20036;-64
2022/02/03 15:04:35;;;;;;;10.85;9.15;;;;;;;5.81;83.14;99754.00;5093753;28;20036;-64
2022/02/03 15:07:10;;;;;;;14.80;9.48;;;;;;;5.79;83.49;99748.78;5076953;28;20040;-63
2022/02/03 15:10:14;;;;;;;13.75;9.85;;;;;;;5.81;83.13;99759.16;5094937;28;20132;-63
2022/02/03 15:15:03;;;;;;;20.75;10.88;;;;;;;5.81;83.03;99766.88;5094087;28;20063;-64
2022/02/03 15:17:31;;;;;;;14.27;9.48;;;;;;;5.81;82.42;99754.00;5093826;28;20032;-64
2022/02/03 15:20:06;;;;;;;17.23;9.55;;;;;;;5.79;82.67;99757.41;5076491;28;20058;-64
2022/02/03 15:22:34;;;;;;;14.38;9.77;;;;;;;5.80;83.27;99760.84;5093852;28;20085;-65
2022/02/03 15:25:03;;;;;;;14.90;10.43;;;;;;;5.82;83.09;99766.03;5094445;28;20427;-64
2022/02/03 15:27:38;;;;;;;14.43;8.93;;;;;;;5.79;83.07;99748.78;5093757;28;20040;-64
2022/02/03 15:30:06;;;;;;;12.73;9.27;;;;;;;5.79;82.68;99759.09;5076867;28;20035;-64
2022/02/03 15:32:42;;;;;;;18.38;9.85;;;;;;;5.80;82.92;99758.25;5093316;28;20028;-64
2022/02/03 15:35:37;;;;;;;17.38;10.82;;;;;;;5.80;82.96;99747.97;5094555;28;20124;-63
2022/02/03 15:38:00;;;;;;;17.08;11.35;;;;;;;5.79;82.96;99746.22;5094138;28;20047;-65
2022/02/03 15:40:27;;;;;;;14.02;10.38;;;;;;;5.79;83.14;99744.53;5134674;27;20466;-64
2022/02/03 15:43:04;;;;;;;19.77;10.35;;;;;;;5.78;83.13;99740.22;5099934;27;20035;-64
2022/02/03 15:45:38;;;;;;;14.27;10.60;;;;;;;5.79;83.31;99743.66;5116891;27;20047;-64
2022/02/03 16:01:39;;;;;;;14.63;11.00;;;;;;;5.74;82.70;99719.50;5116415;27;20501;-63
2022/02/03 16:04:27;;;;;;;13.80;11.70;;;;;;;5.76;82.63;99725.59;5116726;27;20031;-63
2022/02/03 16:18:11;;;;;;;14.32;11.15;;;;;;;5.77;83.10;99701.56;5134491;27;20509;-64
2022/02/03 16:20:44;;;;;;;18.40;11.43;;;;;;;5.77;82.42;99709.28;5099510;27;20039;-63
2022/02/03 16:23:44;;;;;;;15.48;11.18;;;;;;;5.76;83.30;99698.16;5099255;27;20121;-64
2022/02/03 16:54:14;;;;;;;15.77;11.80;;;;;;;5.75;82.99;99710.97;5115871;28;20035;-64
2022/02/03 16:56:51;;;;;;;18.13;12.82;;;;;;;5.75;82.99;99709.25;5115856;28;20036;-64
2022/02/03 16:59:34;;;;;;;13.65;10.77;;;;;;;5.74;83.12;99711.81;5134701;28;20381;-64
2022/02/03 17:02:00;;;;;;;18.60;13.10;;;;;;;5.74;83.28;99702.38;5099259;28;20035;-64
2022/02/03 17:04:28;;;;;;;15.73;13.38;;;;;;;5.75;82.73;99704.13;5134409;27;20565;-64
2022/02/03 17:06:59;;;;;;;19.67;13.35;;;;;;;5.74;82.93;99704.94;5134263;27;20067;-64
2022/02/03 17:09:32;;;;;;;30.70;13.15;;;;;;;5.75;83.01;99700.69;5134113;27;20043;-64
2022/02/03 17:12:03;;;;;;;15.23;11.35;;;;;;;5.74;83.03;99707.50;5134175;27;20031;-64
2022/02/03 17:14:34;;;;;;;21.48;13.35;;;;;;;5.73;82.67;99704.91;5134191;27;20034;-64
2022/02/03 17:17:06;;;;;;;19.55;12.88;;;;;;;5.75;82.98;99706.69;5115975;28;20052;-63
2022/02/03 17:19:36;;;;;;;16.40;12.95;;;;;;;5.74;82.87;99704.94;5098809;28;20043;-64
2022/02/03 17:22:05;;;;;;;15.77;11.95;;;;;;;5.75;83.05;99700.69;5134000;28;20077;-64
2022/02/03 17:24:41;;;;;;;16.30;12.27;;;;;;;5.75;82.94;99700.69;5116137;27;20073;-64
2022/02/03 17:27:55;;;;;;;18.42;13.10;;;;;;;5.76;83.12;99705.00;5101994;27;20550;-64
2022/02/03 18:06:40;;;;;;;17.45;13.38;;;;;;;5.73;82.81;99712.63;5137502;27;20031;-64
2022/02/03 18:35:56;;;;;;;18.33;13.20;;;;;;;5.73;83.07;99723.78;5136894;27;20039;-63
2022/02/03 19:15:40;;;;;;;21.33;15.43;;;;;;;5.73;83.00;99700.63;5074390;28;20047;-64
2022/02/03 19:21:16;;;;;;;16.92;14.73;;;;;;;5.73;83.39;99697.19;5074047;28;20395;-64
2022/02/03 20:09:28;;;;;;;17.90;14.07;;;;;;;5.69;83.21;99714.22;5073993;28;20032;-64
2022/02/03 20:11:57;;;;;;;17.30;14.60;;;;;;;5.70;83.08;99713.38;5072387;28;20063;-64
2022/02/03 20:14:28;;;;;;;20.42;14.90;;;;;;;5.70;83.33;99721.09;5073654;28;20066;-64
2022/02/03 20:17:04;;;;;;;21.08;15.20;;;;;;;5.70;83.27;99715.97;5073580;28;20043;-63
2022/02/03 20:19:35;;;;;;;18.80;14.23;;;;;;;5.72;83.08;99723.75;5073797;28;20436;-63
2022/02/03 20:22:09;;;;;;;17.95;14.40;;;;;;;5.71;83.21;99719.41;5056467;28;20106;-65
2022/02/03 20:24:36;;;;;;;17.35;14.48;;;;;;;5.71;82.71;99722.84;5073704;28;20044;-63
2022/02/03 20:27:09;;;;;;;20.33;15.02;;;;;;;5.70;83.02;99721.09;5055841;28;20101;-64
2022/02/03 20:29:44;;;;;;;18.60;14.35;;;;;;;5.71;82.83;99728.00;5055642;28;20106;-64
2022/02/03 20:32:14;;;;;;;27.48;15.70;;;;;;;5.71;83.13;99730.56;5056640;28;20036;-63
2022/02/03 20:34:47;;;;;;;19.63;14.80;;;;;;;5.72;82.95;99721.16;5073457;28;20041;-64
2022/02/03 20:37:15;;;;;;;18.00;14.32;;;;;;;5.72;83.50;99728.88;5073489;28;20045;-64
2022/02/03 20:39:43;;;;;;;21.55;15.60;;;;;;;5.72;82.88;99734.03;5072197;28;20520;-64
2022/02/03 20:42:11;;;;;;;24.65;15.77;;;;;;;5.72;83.16;99726.31;5072133;28;20035;-63
2022/02/03 20:44:48;;;;;;;19.65;16.17;;;;;;;5.72;83.43;99729.72;5073447;28;20033;-64
2022/02/03 20:47:14;;;;;;;20.38;15.05;;;;;;;5.72;83.23;99722.03;5073584;28;20043;-64
2022/02/03 20:49:40;;;;;;;17.17;13.68;;;;;;;5.73;83.21;99722.91;5073445;28;20040;-63
2022/02/03 20:52:06;;;;;;;21.38;14.95;;;;;;;5.72;83.31;99714.31;5073315;28;20119;-64
2022/02/03 20:54:37;;;;;;;19.80;15.25;;;;;;;5.72;82.83;99722.03;5073157;28;20507;-64
2022/02/03 20:57:08;;;;;;;20.23;16.42;;;;;;;5.72;83.32;99722.03;5072424;28;20033;-64
2022/02/03 21:02:57;;;;;;;20.00;15.18;;;;;;;5.71;83.16;99728.00;5077077;28;20040;-64
2022/02/03 21:05:19;;;;;;;21.58;15.13;;;;;;;5.71;83.04;99725.41;5074028;28;20044;-64
2022/02/03 21:07:47;;;;;;;21.83;15.63;;;;;;;5.71;83.58;99722.84;5059579;28;20087;-64
2022/02/03 21:10:21;;;;;;;24.85;15.70;;;;;;;5.69;83.32;99719.34;5075960;28;20040;-64
2022/02/03 21:12:49;;;;;;;;;;;;;;;5.69;82.85;99713.34;5076582;28;20039;-63
2022/02/03 21:15:27;;;;;;;19.02;14.18;;;;;;;5.70;83.01;99717.66;5077004;28;19928;-64
2022/02/03 21:18:02;;;;;;;19.60;14.93;;;;;;;5.70;83.41;99712.53;5076297;28;20041;-64
2022/02/03 21:20:33;;;;;;;21.50;15.60;;;;;;;5.69;83.00;99703.91;5075257;28;20033;-64
2022/02/03 21:23:04;;;;;;;27.55;14.63;;;;;;;5.69;83.23;99703.06;5077279;28;20047;-64
2022/02/03 21:25:44;;;;;;;17.58;14.55;;;;;;;5.68;83.41;99699.63;5059165;28;20029;-64
2022/02/03 21:29:00;;;;;;;19.33;15.23;;;;;;;5.69;83.38;99701.34;5085682;27;1964185;-64
2022/02/03 21:31:28;;;;;;;18.75;16.70;;;;;;;5.70;83.56;99705.66;5113633;28;20464;-64
2022/02/03 21:33:59;;;;;;;20.02;14.77;;;;;;;5.70;83.17;99709.94;5131769;28;20035;-64
2022/02/03 21:36:36;;;;;;;21.92;15.10;;;;;;;5.70;83.33;99713.38;5113456;28;20035;-64
2022/02/03 21:39:04;;;;;;;20.70;16.52;;;;;;;5.70;83.10;99718.53;5132041;28;20035;-64
2022/02/03 21:41:35;;;;;;;17.20;14.43;;;;;;;5.71;83.42;99716.84;5113243;28;20040;-64
2022/02/03 21:44:01;;;;;;;18.35;15.85;;;;;;;5.71;83.13;99716.84;5131930;28;20080;-64
2022/02/03 21:46:32;;;;;;;19.75;15.05;;;;;;;5.70;82.94;99704.81;5131628;28;20092;-64
2022/02/03 21:48:59;;;;;;;20.27;15.63;;;;;;;5.70;83.01;99708.25;5096168;28;20035;-64
2022/02/03 21:51:30;;;;;;;22.00;15.25;;;;;;;5.70;83.68;99705.66;5131820;28;20039;-64
2022/02/03 21:54:04;;;;;;;20.70;15.13;;;;;;;5.71;83.05;99710.00;5113301;28;20095;-63
2022/02/03 21:56:38;;;;;;;20.20;14.45;;;;;;;5.69;83.33;99710.78;5096507;28;20096;-63
2022/02/03 21:59:08;;;;;;;21.92;15.70;;;;;;;5.71;83.34;99704.00;5131214;28;20043;-64
2022/02/03 22:01:43;;;;;;;20.08;14.68;;;;;;;5.69;83.46;99697.91;5112882;28;20035;-63
2022/02/03 22:04:14;;;;;;;18.15;13.98;;;;;;;5.70;83.09;99703.09;5095913;28;20038;-64
2022/02/03 22:06:45;;;;;;;21.20;15.57;;;;;;;5.70;83.50;99702.25;5095721;28;20044;-64
2022/02/03 22:09:14;;;;;;;22.40;15.10;;;;;;;5.69;83.52;99703.91;5131290;28;20031;-64
2022/02/03 22:11:44;;;;;;;19.20;15.65;;;;;;;5.68;83.27;99694.50;5112768;28;20075;-64
2022/02/03 22:14:12;;;;;;;19.20;14.55;;;;;;;5.70;83.26;99694.53;5095692;28;20447;-63
2022/02/03 22:16:40;;;;;;;19.00;14.48;;;;;;;5.71;83.63;99704.00;5112959;28;20088;-64
2022/02/03 22:19:11;;;;;;;21.73;15.52;;;;;;;5.69;83.55;99696.22;5095506;28;20088;-63
2022/02/03 22:22:05;;;;;;;20.65;14.63;;;;;;;5.70;83.08;99691.97;5112849;28;20040;-63
2022/02/03 22:48:26;;;;;;;20.98;15.18;;;;;;;5.68;83.86;99686.78;5152882;27;20344;-64
2022/02/03 22:51:04;;;;;;;20.13;15.40;;;;;;;5.68;83.38;99697.06;5134274;27;20080;-64
2022/02/03 22:53:35;;;;;;;21.92;15.20;;;;;;;5.68;83.19;99691.91;5152580;27;20026;-63
2022/02/03 22:56:06;;;;;;;18.88;13.75;;;;;;;5.69;83.37;99705.63;5134273;27;20039;-64
2022/02/03 23:01:29;;;;;;;18.60;14.68;;;;;;;5.69;83.37;99708.22;5134049;27;20042;-63
2022/02/03 23:04:00;;;;;;;18.27;14.30;;;;;;;5.69;83.58;99705.63;5152429;27;20035;-64
2022/02/03 23:06:30;;;;;;;17.27;13.95;;;;;;;5.69;83.87;99711.63;5152190;27;20042;-64
2022/02/03 23:14:25;;;;;;;18.15;13.63;;;;;;;5.67;83.36;99710.75;5133310;27;20035;-64
2022/02/03 23:20:01;;;;;;;19.13;13.73;;;;;;;5.68;83.57;99704.78;5152111;27;20125;-64
2022/02/03 23:22:32;;;;;;;20.30;13.32;;;;;;;5.68;83.90;99704.78;5151650;27;20494;-64
2022/02/03 23:24:59;;;;;;;19.55;13.15;;;;;;;5.70;83.77;99699.66;5151922;27;20060;-63
2022/02/03 23:30:16;;;;;;;17.63;14.00;;;;;;;5.68;83.59;99697.06;5133658;27;20389;-63
2022/02/03 23:32:42;;;;;;;17.95;14.02;;;;;;;5.67;83.70;99697.00;5133362;27;20381;-63